Pagina principale
METAR-TAF:

METAR-TAF

Aeroporti :

Aeroporto militare Mario de Bernardi

Pratica Di Mare, Italia

latitudine: 41-39N, longitudine: 012-27E, altezza: 6 m

Osservazione

Il bollettino è stato emesso 46 minuti fa, alle 16:55 UTC
Vento 12 kt da ovest/nord-ovest
Temperature 20°C
Umidità 73%
Pressione 1014 hPa
Visibilità 10 km o più
nessuna nube inferiore a 1500 m e nessun cumulonembo

METAR: LIRE 311655Z 29012KT CAVOK 20/15 Q1014 RMK SCT SCT160 VIS MIN 9999 WIND THR13 30010KT WIND THR31 28012KT BLU

Ora: 19:41 (17:41 UTC)

Previsione

Il bollettino è stato emesso 41 minuti fa, alle 17:00 UTC
Previsione valida dal 31 alle 18 UTC al 01 alle 03 UTC
Vento 3 kt da nord
Visibilità 10 km o più
Poco nuvoloso ad un'altezza di 3500 ft

TAF: LIRE 311700Z 3118/0103 35003KT 9999 FEW035

Osservazioni e previsioni meteorologiche di più di 4000 aeroporti (messaggi METAR e TAF).

Le stazioni disponibili sono rappresentate dai dischi gialli e rossi sulla carta.

Puntare il mouse per vedere il nome della stazione.

Clicca sopra per visualizzare le osservazioni e previsioni meteorologiche.

Per cambiare la mappa : fare clic sui pulsanti verdi con una croce nera per ingrandire, il pulsante verde con un trattino per diminuire, o sulla freccia verde per le mappe adiacenti.


METAR-TAF: